Time;durP1;ratioP1;P1;durP2;ratioP2;P2;SDS_P1;SDS_P2;PMS_P1;PMS_P2;Temp;Humidity;BMP_temperature;BMP_pressure;BME280_temperature;BME280_humidity;BME280_pressure;Samples;Min_cycle;Max_cycle;Signal;HPM_P1;HPM_P2
2021/04/02 00:01:29;;;;;;;21.85;8.95;;;;;;;6.18;72.77;100385.16;5050225;28;20121;-48
2021/04/02 00:03:55;;;;;;;16.38;7.40;;;;;;;7.53;66.57;100381.00;5048791;28;20049;-46
2021/04/02 00:06:20;;;;;;;12.98;8.77;;;;;;;7.84;63.83;100374.91;5045867;28;20037;-47
2021/04/02 00:08:46;;;;;;;11.85;7.90;;;;;;;8.25;62.36;100373.69;5048000;28;20569;-45
2021/04/02 00:11:12;;;;;;;12.80;7.82;;;;;;;8.65;61.01;100374.25;5048451;28;20029;-48
2021/04/02 00:13:40;;;;;;;12.80;7.97;;;;;;;8.80;60.20;100379.03;5048444;28;20033;-45
2021/04/02 00:16:07;;;;;;;12.45;8.23;;;;;;;8.88;59.66;100379.63;5048633;28;20115;-45
2021/04/02 00:18:32;;;;;;;14.02;8.77;;;;;;;8.91;58.59;100378.66;5048685;28;20037;-50
2021/04/02 00:21:00;;;;;;;13.90;8.80;;;;;;;8.68;59.27;100382.03;5047110;28;20079;-76
2021/04/02 00:23:25;;;;;;;13.88;8.35;;;;;;;8.12;61.23;100380.22;5049939;28;20029;-77
2021/04/02 00:25:51;;;;;;;19.15;9.88;;;;;;;7.63;62.87;100381.59;5037748;28;20378;-78
2021/04/02 00:28:16;;;;;;;18.98;10.20;;;;;;;7.27;64.19;100384.34;5036357;28;20048;-76
2021/04/02 00:30:45;;;;;;;21.40;9.23;;;;;;;7.01;64.93;100380.59;5069518;28;20491;-76
2021/04/02 00:33:11;;;;;;;19.70;9.50;;;;;;;6.86;66.08;100384.47;5070202;28;20037;-75
2021/04/02 00:35:38;;;;;;;17.27;10.55;;;;;;;6.72;66.54;100380.44;5070841;28;20101;-75
2021/04/02 00:38:05;;;;;;;14.70;9.13;;;;;;;6.59;67.01;100382.50;5073429;28;20484;-75
2021/04/02 00:40:37;;;;;;;23.17;10.15;;;;;;;6.54;67.19;100382.59;5072977;28;20041;-75
2021/04/02 00:43:03;;;;;;;20.98;9.48;;;;;;;6.48;67.71;100381.91;5053529;28;20036;-74
2021/04/02 00:45:28;;;;;;;18.00;10.45;;;;;;;6.43;67.85;100379.38;5053379;28;20036;-75
2021/04/02 00:47:55;;;;;;;21.13;11.07;;;;;;;6.41;67.77;100383.78;5053703;28;20459;-76
2021/04/02 00:51:06;;;;;;;16.30;10.43;;;;;;;6.36;68.39;100383.88;5053228;28;20044;-76
2021/04/02 00:53:36;;;;;;;19.13;10.82;;;;;;;6.38;68.07;100376.00;4990647;28;20114;-76
2021/04/02 00:56:04;;;;;;;17.95;10.23;;;;;;;6.33;68.41;100376.09;4991618;28;20037;-76
2021/04/02 00:58:32;;;;;;;19.67;10.82;;;;;;;6.36;68.09;100393.50;5014576;28;20053;-76
2021/04/02 01:00:59;;;;;;;21.33;12.27;;;;;;;6.34;68.72;100388.28;5019796;28;20034;-76
2021/04/02 01:03:24;;;;;;;20.63;10.90;;;;;;;6.36;68.30;100390.88;5033579;28;20040;-75
2021/04/02 01:05:52;;;;;;;18.80;10.50;;;;;;;6.43;68.30;100389.88;5034429;28;20042;-75
2021/04/02 01:08:20;;;;;;;19.58;12.68;;;;;;;6.35;68.23;100386.53;5034185;28;20041;-75
2021/04/02 01:10:46;;;;;;;21.13;13.02;;;;;;;6.27;68.79;100380.59;5035081;28;20029;-76
2021/04/02 01:13:16;;;;;;;17.40;11.27;;;;;;;6.30;68.44;100385.78;5037351;28;20576;-75
2021/04/02 01:15:46;;;;;;;20.33;11.07;;;;;;;6.29;69.18;100379.69;5060270;28;20033;-75
2021/04/02 01:18:16;;;;;;;20.70;13.15;;;;;;;6.23;68.83;100379.84;5066370;28;20408;-75
2021/04/02 01:20:44;;;;;;;26.00;13.68;;;;;;;6.22;69.24;100381.56;5032007;28;20089;-75
2021/04/02 01:23:13;;;;;;;24.10;13.10;;;;;;;6.20;68.93;100374.63;5048715;28;20042;-75
2021/04/02 01:25:38;;;;;;;18.58;12.70;;;;;;;6.27;69.06;100371.00;5053362;28;20583;-75
2021/04/02 01:28:03;;;;;;;19.60;13.02;;;;;;;6.35;68.73;100371.69;5053826;28;20044;-77
2021/04/02 01:30:29;;;;;;;21.58;12.25;;;;;;;6.36;68.53;100370.78;5057780;28;20033;-77
2021/04/02 01:32:58;;;;;;;18.90;12.20;;;;;;;6.39;68.53;100372.47;5055771;28;20116;-76
2021/04/02 01:35:26;;;;;;;24.17;15.15;;;;;;;6.36;68.63;100370.78;5052569;28;20112;-77
2021/04/02 01:38:12;;;;;;;20.08;12.90;;;;;;;6.32;68.67;100370.91;5035881;28;20033;-77
2021/04/02 01:40:41;;;;;;;20.48;13.43;;;;;;;6.30;68.63;100372.69;5016544;28;20121;-76
2021/04/02 01:43:11;;;;;;;23.02;12.65;;;;;;;6.24;68.59;100360.59;5014170;28;20694;-77
2021/04/02 01:45:37;;;;;;;22.10;14.90;;;;;;;6.22;68.92;100365.00;5013955;28;20046;-77
2021/04/02 01:48:05;;;;;;;25.50;14.63;;;;;;;6.23;68.95;100359.75;5012607;28;20116;-77
2021/04/02 01:50:32;;;;;;;27.13;14.48;;;;;;;6.31;68.70;100367.41;5014414;28;20037;-77
2021/04/02 01:52:58;;;;;;;21.55;15.85;;;;;;;6.33;68.63;100365.63;5017738;28;20034;-77
2021/04/02 01:55:24;;;;;;;22.35;15.23;;;;;;;6.34;68.23;100372.59;5015430;28;20428;-77
2021/04/02 01:57:51;;;;;;;27.80;13.93;;;;;;;6.35;68.36;100373.44;5016948;28;20034;-77
2021/04/02 02:00:23;;;;;;;26.85;15.68;;;;;;;6.23;68.75;100367.59;5013929;28;20087;-77
2021/04/02 02:02:51;;;;;;;26.00;15.88;;;;;;;6.18;68.81;100368.59;5032988;28;20057;-76
2021/04/02 02:05:17;;;;;;;26.52;16.60;;;;;;;6.00;69.67;100368.06;5022843;28;20045;-76
2021/04/02 02:07:44;;;;;;;27.77;17.45;;;;;;;5.89;69.88;100362.19;5013487;28;20030;-75
2021/04/02 02:10:11;;;;;;;30.63;15.40;;;;;;;5.86;70.21;100372.72;5011622;28;20096;-76
2021/04/02 02:12:40;;;;;;;25.90;15.77;;;;;;;5.91;70.17;100372.63;5022157;28;20439;-76
2021/04/02 02:15:09;;;;;;;20.65;13.55;;;;;;;5.92;70.09;100367.34;5041942;28;20555;-75
2021/04/02 02:17:35;;;;;;;27.75;16.20;;;;;;;5.92;70.38;100374.34;5033653;28;20065;-76
2021/04/02 02:20:07;;;;;;;25.63;13.98;;;;;;;5.87;70.21;100373.56;5034697;28;20029;-76
2021/04/02 02:22:33;;;;;;;24.58;14.50;;;;;;;5.91;70.23;100377.88;5037633;28;20382;-75
2021/04/02 02:25:00;;;;;;;29.95;16.13;;;;;;;5.86;70.54;100379.69;5032802;28;20026;-76
2021/04/02 02:27:25;;;;;;;22.70;17.05;;;;;;;5.77;70.60;100371.13;5032094;28;20026;-76
2021/04/02 02:29:51;;;;;;;22.85;14.60;;;;;;;5.85;70.34;100370.97;5031308;28;20468;-76
2021/04/02 02:32:17;;;;;;;22.05;13.80;;;;;;;5.96;69.58;100369.06;5030300;28;20040;-75
2021/04/02 02:34:42;;;;;;;22.23;14.15;;;;;;;6.06;69.55;100363.63;5046087;28;20039;-76
2021/04/02 02:37:08;;;;;;;22.48;16.30;;;;;;;6.08;68.43;100360.09;5051613;28;20488;-76
2021/04/02 02:39:35;;;;;;;22.48;14.35;;;;;;;5.96;69.18;100360.34;5051342;28;20135;-77
2021/04/02 02:42:04;;;;;;;22.02;14.90;;;;;;;5.86;69.64;100369.22;5066905;28;20503;-77
2021/04/02 02:44:34;;;;;;;25.52;15.38;;;;;;;5.83;69.95;100362.28;5051556;28;20040;-75
2021/04/02 02:47:09;;;;;;;18.55;15.45;;;;;;;5.85;69.85;100360.50;5051465;28;20033;-77
2021/04/02 02:49:36;;;;;;;26.60;14.23;;;;;;;5.90;69.32;100365.66;5051728;28;20049;-76
2021/04/02 02:52:03;;;;;;;31.55;17.30;;;;;;;5.92;69.32;100369.09;5051490;28;20029;-76
2021/04/02 02:54:30;;;;;;;25.25;15.38;;;;;;;5.87;69.45;100370.97;5043929;28;20041;-76
2021/04/02 02:56:57;;;;;;;23.15;14.00;;;;;;;5.89;69.03;100363.94;5028131;28;20060;-75
2021/04/02 02:59:25;;;;;;;21.08;14.70;;;;;;;5.97;68.90;100362.91;5031234;28;20386;-76
2021/04/02 03:01:53;;;;;;;21.65;14.93;;;;;;;5.97;68.95;100364.66;5031579;28;20594;-77
2021/04/02 03:04:21;;;;;;;18.80;13.85;;;;;;;5.87;68.91;100363.97;5030297;28;20061;-76
2021/04/02 03:06:49;;;;;;;22.85;14.75;;;;;;;5.76;69.33;100361.59;5031984;28;20492;-76
2021/04/02 03:09:17;;;;;;;21.75;13.40;;;;;;;5.84;69.25;100358.81;5030003;28;20542;-76
2021/04/02 03:11:44;;;;;;;24.70;13.95;;;;;;;5.80;69.10;100360.59;5030945;28;20100;-76
2021/04/02 03:14:16;;;;;;;20.05;13.43;;;;;;;5.81;69.17;100357.13;5033106;28;20492;-75
2021/04/02 03:16:47;;;;;;;23.65;14.48;;;;;;;5.79;69.08;100358.91;5032017;28;20139;-75
2021/04/02 03:19:14;;;;;;;21.52;13.18;;;;;;;5.72;69.13;100352.06;5044790;28;20037;-76
2021/04/02 03:21:40;;;;;;;21.00;14.30;;;;;;;5.75;69.07;100356.38;5042590;28;20381;-77
2021/04/02 03:24:07;;;;;;;22.17;14.95;;;;;;;5.80;69.12;100350.13;5031368;28;20030;-76
2021/04/02 03:26:33;;;;;;;25.08;16.85;;;;;;;5.87;68.07;100355.25;5031109;28;20037;-75
2021/04/02 03:29:00;;;;;;;25.60;17.10;;;;;;;5.77;68.24;100351.97;5031085;28;20401;-75
2021/04/02 03:31:27;;;;;;;26.13;15.95;;;;;;;5.78;68.88;100351.06;5030168;28;20033;-76
2021/04/02 03:33:55;;;;;;;29.55;19.05;;;;;;;5.75;68.83;100370.31;5013424;28;20379;-76
2021/04/02 03:36:25;;;;;;;29.60;18.40;;;;;;;5.63;68.66;100367.06;5012277;28;20065;-75
2021/04/02 03:38:52;;;;;;;25.63;16.98;;;;;;;5.48;69.08;100361.25;5010254;28;20490;-76
2021/04/02 03:41:25;;;;;;;27.55;18.23;;;;;;;5.37;69.75;100364.06;5011878;28;20034;-76
2021/04/02 03:43:52;;;;;;;37.00;22.75;;;;;;;5.36;69.85;100362.34;5014387;28;20113;-75
2021/04/02 03:46:20;;;;;;;27.45;17.73;;;;;;;5.35;69.97;100359.75;5031835;28;20120;-75
2021/04/02 03:48:47;;;;;;;32.35;16.90;;;;;;;5.37;69.89;100358.84;5030804;28;20034;-75
2021/04/02 03:51:20;;;;;;;33.95;18.67;;;;;;;5.39;69.49;100361.44;5030692;28;20034;-75
2021/04/02 03:53:50;;;;;;;22.55;16.75;;;;;;;5.41;69.22;100371.84;5030668;28;20033;-76
2021/04/02 03:56:22;;;;;;;26.90;17.33;;;;;;;5.23;69.74;100368.69;5030208;28;20037;-75
2021/04/02 03:58:48;;;;;;;27.13;17.23;;;;;;;5.07;70.48;100364.59;5030718;28;20033;-75
2021/04/02 04:01:18;;;;;;;28.45;15.98;;;;;;;5.11;70.56;100361.06;5031082;28;20370;-76
2021/04/02 04:03:47;;;;;;;20.42;15.77;;;;;;;5.17;70.40;100368.81;5029382;28;20030;-75
2021/04/02 04:06:16;;;;;;;27.70;17.90;;;;;;;5.14;70.17;100364.50;5031957;28;20041;-76
2021/04/02 04:08:43;;;;;;;25.20;18.65;;;;;;;5.23;70.36;100360.84;5030998;28;20036;-75
2021/04/02 04:11:11;;;;;;;28.40;18.85;;;;;;;5.28;70.33;100369.47;5032913;28;20037;-74
2021/04/02 04:13:38;;;;;;;32.40;18.98;;;;;;;5.29;69.83;100368.59;5061621;28;20086;-74
2021/04/02 04:16:06;;;;;;;26.77;16.77;;;;;;;5.27;70.23;100372.97;5069844;28;20025;-75
2021/04/02 04:18:34;;;;;;;29.70;17.23;;;;;;;5.38;69.56;100371.00;5052139;28;20107;-75
2021/04/02 04:21:04;;;;;;;32.75;21.33;;;;;;;5.31;69.74;100379.00;5054271;28;20665;-75
2021/04/02 04:23:30;;;;;;;25.88;18.95;;;;;;;5.15;70.42;100374.06;5054077;28;20055;-75
2021/04/02 04:25:59;;;;;;;26.20;17.30;;;;;;;5.21;70.26;100375.69;5014215;28;20034;-75
2021/04/02 04:28:26;;;;;;;30.70;18.27;;;;;;;5.21;69.90;100375.69;5017073;28;20060;-75
2021/04/02 04:30:54;;;;;;;35.22;19.45;;;;;;;5.18;70.10;100382.72;5034780;28;20029;-76
2021/04/02 04:33:23;;;;;;;24.65;16.83;;;;;;;5.13;70.51;100381.06;5049376;28;20056;-75
2021/04/02 04:35:49;;;;;;;29.30;17.52;;;;;;;5.12;70.31;100381.09;5035701;28;20051;-75
2021/04/02 04:38:16;;;;;;;30.67;19.02;;;;;;;5.05;70.63;100385.56;5033770;28;20030;-76
2021/04/02 04:40:42;;;;;;;24.65;17.00;;;;;;;5.05;71.01;100382.09;5049532;28;20061;-76
2021/04/02 04:43:12;;;;;;;31.02;18.67;;;;;;;5.08;70.84;100377.66;5033239;28;20057;-75
2021/04/02 04:45:37;;;;;;;29.60;17.70;;;;;;;5.10;70.57;100378.50;5047862;28;20040;-74
2021/04/02 04:48:03;;;;;;;25.75;18.58;;;;;;;5.10;71.00;100373.28;5050939;28;20033;-75
2021/04/02 04:50:28;;;;;;;30.23;19.33;;;;;;;5.15;70.67;100375.81;5038673;28;20036;-74
2021/04/02 04:53:00;;;;;;;28.67;20.80;;;;;;;5.09;70.88;100383.75;5052518;28;20518;-74
2021/04/02 04:55:26;;;;;;;33.45;22.17;;;;;;;5.11;70.38;100376.75;5054074;28;20033;-75
2021/04/02 04:57:55;;;;;;;30.58;18.83;;;;;;;5.18;70.65;100380.97;5053194;28;20125;-75
2021/04/02 05:00:22;;;;;;;34.83;22.08;;;;;;;5.28;70.39;100379.06;5054351;28;20033;-75
2021/04/02 05:02:49;;;;;;;38.42;22.42;;;;;;;5.31;70.36;100381.63;5053398;28;20033;-76
2021/04/02 05:05:29;;;;;;;34.20;21.52;;;;;;;5.36;70.02;100383.25;5053515;28;20147;-75
2021/04/02 05:07:57;;;;;;;35.08;23.13;;;;;;;5.35;69.84;100378.91;5053381;28;20108;-76
2021/04/02 05:10:23;;;;;;;38.85;25.45;;;;;;;5.46;69.93;100385.69;5053669;28;20051;-76
2021/04/02 05:12:51;;;;;;;32.72;24.30;;;;;;;5.46;69.68;100380.47;5053780;28;20040;-74
2021/04/02 05:15:19;;;;;;;32.67;22.55;;;;;;;5.50;69.42;100392.59;5054797;28;20037;-77
2021/04/02 05:17:46;;;;;;;32.67;23.70;;;;;;;5.43;69.79;100391.00;5056176;28;20047;-78
2021/04/02 05:20:12;;;;;;;32.40;22.27;;;;;;;5.48;69.72;100391.78;5037678;28;20025;-76
2021/04/02 05:22:37;;;;;;;41.80;26.45;;;;;;;5.49;70.05;100394.38;5052014;28;20055;-75
2021/04/02 05:25:06;;;;;;;28.95;21.08;;;;;;;5.53;69.93;100392.53;5054137;28;20480;-76
2021/04/02 05:27:31;;;;;;;32.58;23.15;;;;;;;5.56;69.60;100395.97;5053697;28;20454;-75
2021/04/02 05:29:57;;;;;;;34.80;24.23;;;;;;;5.51;69.44;100389.97;5045841;28;20052;-75
2021/04/02 05:32:23;;;;;;;33.85;24.75;;;;;;;5.49;69.46;100390.88;5046100;28;20394;-76
2021/04/02 05:34:48;;;;;;;44.58;28.17;;;;;;;5.38;70.13;100394.53;5046895;28;20033;-75
2021/04/02 05:37:13;;;;;;;45.15;27.00;;;;;;;5.37;70.48;100399.81;5053023;28;21574;-74
2021/04/02 05:39:39;;;;;;;44.22;28.77;;;;;;;5.40;70.21;100401.50;5052220;28;20052;-75
2021/04/02 05:42:09;;;;;;;42.35;26.38;;;;;;;5.38;70.15;100402.38;5068814;28;20033;-75
2021/04/02 05:44:37;;;;;;;35.30;26.17;;;;;;;5.47;70.32;100396.16;5037471;28;20385;-75
2021/04/02 05:47:08;;;;;;;41.80;26.38;;;;;;;5.43;70.22;100401.44;5014674;28;20034;-75
2021/04/02 05:49:34;;;;;;;38.33;25.65;;;;;;;5.47;70.04;100410.97;5004050;28;20038;-72
2021/04/02 05:52:01;;;;;;;39.10;26.02;;;;;;;5.48;70.04;100399.63;5012761;28;20034;-75
2021/04/02 05:54:28;;;;;;;33.70;21.98;;;;;;;5.53;70.16;100400.38;5013034;28;20045;-75
2021/04/02 05:56:54;;;;;;;39.58;22.50;;;;;;;5.54;69.92;100402.13;5014246;28;20033;-75
2021/04/02 05:59:20;;;;;;;34.40;22.90;;;;;;;5.62;69.79;100404.59;5012930;28;20044;-76
2021/04/02 06:01:46;;;;;;;38.85;22.13;;;;;;;5.64;70.25;100411.53;5012711;28;20033;-75
2021/04/02 06:04:13;;;;;;;39.35;26.45;;;;;;;5.72;69.38;100416.59;5011957;28;20397;-75
2021/04/02 06:06:40;;;;;;;36.95;22.85;;;;;;;5.60;69.99;100410.69;5011637;28;20084;-77
2021/04/02 06:09:05;;;;;;;38.78;23.30;;;;;;;5.57;70.36;100420.38;5012055;28;20105;-76
2021/04/02 06:11:31;;;;;;;36.60;25.23;;;;;;;5.53;70.50;100416.06;5012891;28;20062;-76
2021/04/02 06:13:56;;;;;;;32.15;22.50;;;;;;;5.53;70.21;100426.53;5017582;28;20060;-74
2021/04/02 06:16:23;;;;;;;32.40;22.13;;;;;;;5.55;69.99;100433.47;5013264;28;20485;-75
2021/04/02 06:18:48;;;;;;;41.55;22.40;;;;;;;5.54;70.55;100437.00;5010451;28;20030;-75
2021/04/02 06:21:14;;;;;;;32.85;23.23;;;;;;;5.64;70.13;100427.22;5012844;28;20119;-75
2021/04/02 06:23:40;;;;;;;36.92;26.15;;;;;;;5.58;70.44;100432.53;5013097;28;20121;-74
2021/04/02 06:26:15;;;;;;;46.42;27.83;;;;;;;5.62;70.43;100436.84;5015552;28;20045;-75
2021/04/02 06:28:42;;;;;;;38.20;29.17;;;;;;;5.61;70.28;100440.31;5025627;28;20096;-75
2021/04/02 06:31:10;;;;;;;48.63;29.73;;;;;;;5.54;70.82;100441.34;5027219;28;20037;-75
2021/04/02 06:33:45;;;;;;;59.28;36.95;;;;;;;5.46;70.94;100446.69;5041373;28;20063;-76
2021/04/02 06:36:13;;;;;;;63.88;40.47;;;;;;;5.43;70.81;100448.53;5034492;28;20033;-76
2021/04/02 06:38:41;;;;;;;57.95;36.58;;;;;;;5.51;71.09;100454.47;5032879;28;20496;-76
2021/04/02 06:41:06;;;;;;;59.92;39.17;;;;;;;5.51;71.29;100436.16;5032421;28;20036;-75
2021/04/02 06:43:39;;;;;;;52.55;33.50;;;;;;;5.62;70.52;100449.91;5031370;28;20037;-76
2021/04/02 06:46:09;;;;;;;54.42;36.92;;;;;;;5.66;69.99;100451.59;5032065;28;20034;-76
2021/04/02 06:48:34;;;;;;;52.85;34.83;;;;;;;5.48;71.03;100458.00;5033299;28;20064;-76
2021/04/02 06:50:59;;;;;;;47.28;31.50;;;;;;;5.33;70.59;100453.03;5034634;28;20029;-74
2021/04/02 06:53:25;;;;;;;54.47;34.17;;;;;;;5.21;71.80;100455.88;5050569;28;20033;-77
2021/04/02 06:55:52;;;;;;;54.35;30.92;;;;;;;5.25;71.65;100457.53;5041144;28;20030;-75
2021/04/02 06:58:21;;;;;;;49.17;32.45;;;;;;;5.25;71.74;100461.03;5031003;28;20091;-77
2021/04/02 07:00:47;;;;;;;57.85;31.83;;;;;;;5.27;71.14;100459.25;5032060;28;20044;-76
2021/04/02 07:03:14;;;;;;;54.47;32.75;;;;;;;5.21;71.77;100459.34;5032361;28;20033;-76
2021/04/02 07:05:40;;;;;;;51.20;31.80;;;;;;;5.37;70.78;100463.44;5032157;28;20041;-76
2021/04/02 07:08:07;;;;;;;66.03;38.83;;;;;;;5.36;71.24;100464.28;5030919;28;20041;-76
2021/04/02 07:10:34;;;;;;;59.60;37.67;;;;;;;5.47;70.75;100458.91;5031046;28;20033;-75
2021/04/02 07:13:05;;;;;;;64.28;39.42;;;;;;;5.54;70.72;100464.91;5032052;28;20043;-74
2021/04/02 07:15:35;;;;;;;65.63;40.65;;;;;;;5.57;70.32;100459.59;5032230;28;20152;-76
2021/04/02 07:18:03;;;;;;;64.95;41.90;;;;;;;5.52;70.73;100453.59;5032038;28;20029;-74
2021/04/02 07:20:31;;;;;;;72.32;42.78;;;;;;;5.51;70.96;100455.34;5031791;28;20041;-76
2021/04/02 07:22:57;;;;;;;64.93;40.22;;;;;;;5.59;70.92;100455.22;5032612;28;20033;-75
2021/04/02 07:25:23;;;;;;;69.45;41.05;;;;;;;5.62;70.71;100452.53;5031909;28;20636;-76
2021/04/02 07:27:48;;;;;;;71.45;40.97;;;;;;;5.57;70.56;100455.22;5036929;28;20029;-76
2021/04/02 07:30:16;;;;;;;67.03;40.22;;;;;;;5.62;70.29;100457.75;5034427;28;20060;-76
2021/04/02 07:32:42;;;;;;;57.88;37.70;;;;;;;5.57;70.56;100457.84;5033793;28;20048;-74
2021/04/02 07:35:22;;;;;;;61.22;37.05;;;;;;;5.63;70.51;100461.25;5038685;28;20529;-76
2021/04/02 07:37:51;;;;;;;63.97;37.22;;;;;;;5.62;70.74;100462.16;5075167;28;20032;-76
2021/04/02 07:40:20;;;;;;;62.65;36.03;;;;;;;5.62;70.55;100467.38;5061527;28;20049;-75
2021/04/02 07:43:08;;;;;;;60.63;34.63;;;;;;;5.64;70.53;100466.44;5048066;28;20388;-73
2021/04/02 07:45:37;;;;;;;52.35;31.42;;;;;;;5.73;70.30;100463.66;5027371;28;20037;-74
2021/04/02 07:48:14;;;;;;;55.83;32.13;;;;;;;5.71;70.28;100464.56;5032587;28;20481;-74
2021/04/02 07:50:41;;;;;;;59.20;34.65;;;;;;;5.73;70.07;100461.03;5029180;28;20085;-74
2021/04/02 07:53:23;;;;;;;43.67;29.48;;;;;;;5.87;69.80;100459.94;5031228;28;20116;-76
2021/04/02 07:55:54;;;;;;;54.63;31.10;;;;;;;5.93;69.69;100465.03;5026969;28;20148;-74
2021/04/02 07:58:22;;;;;;;41.50;28.08;;;;;;;6.00;69.21;100464.91;5030417;28;20071;-75
2021/04/02 08:00:48;;;;;;;42.53;27.45;;;;;;;6.26;68.43;100460.06;5031745;28;20038;-73
2021/04/02 08:03:17;;;;;;;44.72;28.50;;;;;;;6.38;68.09;100459.81;5024159;28;20025;-76
2021/04/02 08:05:51;;;;;;;52.95;30.17;;;;;;;6.45;67.79;100461.41;5025169;28;20038;-75
2021/04/02 08:08:17;;;;;;;57.45;32.78;;;;;;;6.55;66.87;100468.16;5024432;28;20044;-77
2021/04/02 08:11:06;;;;;;;50.35;30.38;;;;;;;6.59;67.18;100467.19;5024415;28;20120;-75
2021/04/02 08:14:08;;;;;;;41.15;26.15;;;;;;;6.64;66.52;100470.56;5024828;28;20053;-77
2021/04/02 08:16:42;;;;;;;51.72;28.95;;;;;;;6.60;66.87;100468.94;5029058;28;20041;-77
2021/04/02 08:19:10;;;;;;;53.35;30.73;;;;;;;6.75;66.16;100475.59;5029157;28;20029;-76
2021/04/02 08:21:38;;;;;;;48.03;27.85;;;;;;;6.79;66.46;100473.75;5020869;28;20042;-76
2021/04/02 08:24:08;;;;;;;46.50;27.73;;;;;;;6.93;65.46;100476.91;5021571;28;20045;-75
2021/04/02 08:26:36;;;;;;;50.83;30.50;;;;;;;6.94;65.49;100477.78;5020535;28;20057;-78
2021/04/02 08:29:04;;;;;;;52.88;32.10;;;;;;;6.97;65.06;100483.81;5018622;28;20105;-76
2021/04/02 08:31:30;;;;;;;54.92;32.35;;;;;;;7.06;64.73;100483.63;5015406;28;20053;-76
2021/04/02 08:33:56;;;;;;;55.10;35.05;;;;;;;7.05;64.95;100481.00;5014835;28;20038;-74
2021/04/02 08:36:22;;;;;;;63.42;36.63;;;;;;;6.90;65.09;100490.09;5015138;28;20034;-75
2021/04/02 08:38:50;;;;;;;55.33;34.42;;;;;;;6.87;64.97;100485.78;5012661;28;20045;-75
2021/04/02 08:41:19;;;;;;;62.30;34.65;;;;;;;7.12;64.37;100487.84;5013344;28;20021;-75
2021/04/02 08:43:45;;;;;;;62.95;36.17;;;;;;;7.21;64.13;100490.25;5031498;28;20045;-74
2021/04/02 08:46:10;;;;;;;60.53;36.75;;;;;;;7.49;63.84;100487.78;5031926;28;20029;-75
2021/04/02 08:48:38;;;;;;;67.50;40.70;;;;;;;7.59;62.44;100492.81;5031125;28;20041;-77
2021/04/02 08:51:03;;;;;;;80.43;44.63;;;;;;;7.55;62.16;100486.78;5032677;28;20124;-76
2021/04/02 08:53:40;;;;;;;78.95;46.10;;;;;;;7.76;61.75;100489.75;5028660;28;20052;-77
2021/04/02 08:56:06;;;;;;;69.10;40.28;;;;;;;7.92;61.34;100493.69;5029899;28;20034;-78
2021/04/02 08:58:31;;;;;;;75.65;43.10;;;;;;;7.93;60.47;100488.41;5027291;28;20580;-77
2021/04/02 09:00:57;;;;;;;80.40;48.08;;;;;;;7.90;60.42;100485.88;5022237;28;20129;-75
2021/04/02 09:03:22;;;;;;;77.70;46.45;;;;;;;8.13;60.47;100492.25;5023272;28;20052;-74
2021/04/02 09:05:48;;;;;;;78.85;48.47;;;;;;;8.45;59.14;100490.50;5025601;28;20037;-76
2021/04/02 09:08:14;;;;;;;74.82;46.05;;;;;;;8.33;60.06;100492.53;5021322;28;20045;-75
2021/04/02 09:10:39;;;;;;;75.80;48.50;;;;;;;8.29;59.86;100506.66;5024511;28;20049;-76
2021/04/02 09:13:05;;;;;;;64.13;42.35;;;;;;;8.37;60.08;100488.94;5021355;28;20056;-73
2021/04/02 09:15:35;;;;;;;64.80;43.47;;;;;;;8.27;59.81;100499.72;5018597;28;20037;-74
2021/04/02 09:18:28;;;;;;;62.60;42.30;;;;;;;8.24;59.74;100492.78;5022829;28;20112;-72
2021/04/02 09:20:55;;;;;;;59.80;41.28;;;;;;;8.03;59.87;100496.03;5012636;28;20034;-73
2021/04/02 09:23:22;;;;;;;52.17;34.70;;;;;;;8.04;59.64;100500.38;5012781;28;20042;-73
2021/04/02 09:25:49;;;;;;;60.22;38.25;;;;;;;8.00;60.06;100499.59;5012608;28;20061;-75
2021/04/02 09:28:21;;;;;;;53.15;33.90;;;;;;;8.08;60.58;100494.13;5025542;28;20396;-73
2021/04/02 09:30:47;;;;;;;56.53;37.55;;;;;;;7.96;60.79;100498.81;5034265;28;20108;-74
2021/04/02 09:33:19;;;;;;;56.67;31.83;;;;;;;7.93;61.12;100496.28;5033762;28;20128;-74
2021/04/02 09:35:46;;;;;;;47.78;30.30;;;;;;;8.16;60.42;100500.03;5057921;28;20031;-74
2021/04/02 09:38:12;;;;;;;52.30;30.20;;;;;;;8.02;62.11;100505.66;5036344;28;20037;-73
2021/04/02 09:40:43;;;;;;;56.00;33.08;;;;;;;7.99;60.92;100507.50;5038182;28;20021;-73
2021/04/02 09:43:09;;;;;;;42.80;28.65;;;;;;;7.88;61.04;100500.78;5039683;28;20025;-75
2021/04/02 09:45:34;;;;;;;50.20;29.23;;;;;;;7.92;61.38;100510.28;5031932;28;20091;-73
2021/04/02 09:48:02;;;;;;;47.63;30.90;;;;;;;7.83;61.52;100512.31;5031512;28;20112;-74
2021/04/02 09:50:27;;;;;;;42.55;27.88;;;;;;;7.78;61.84;100511.56;5031942;28;20072;-75
2021/04/02 09:52:54;;;;;;;49.17;31.23;;;;;;;7.94;61.11;100500.63;5031170;28;20489;-75
2021/04/02 09:55:19;;;;;;;44.88;28.52;;;;;;;7.87;62.08;100501.69;5031235;28;20112;-74
2021/04/02 09:57:45;;;;;;;46.03;28.48;;;;;;;7.99;60.98;100504.88;5019461;28;20117;-76
2021/04/02 10:00:14;;;;;;;54.25;28.75;;;;;;;7.89;61.31;100504.28;5011123;28;20049;-74
2021/04/02 10:02:40;;;;;;;46.10;30.75;;;;;;;7.93;60.97;100500.66;5015277;28;20092;-73
2021/04/02 10:05:07;;;;;;;43.13;25.02;;;;;;;7.93;61.56;100492.78;5011379;28;20429;-73
2021/04/02 10:07:32;;;;;;;48.58;30.42;;;;;;;7.82;61.00;100506.19;5015146;28;20038;-73
2021/04/02 10:09:58;;;;;;;53.85;29.23;;;;;;;7.68;61.46;100503.94;5013525;28;20393;-72
2021/04/02 10:12:23;;;;;;;42.10;28.83;;;;;;;7.55;62.21;100502.50;5021576;28;20134;-73
2021/04/02 10:14:49;;;;;;;40.63;22.95;;;;;;;7.61;61.52;100502.38;5013362;28;20037;-72
2021/04/02 10:17:15;;;;;;;40.92;26.75;;;;;;;7.74;61.66;100502.91;5007041;28;20076;-76
2021/04/02 10:19:41;;;;;;;41.78;27.25;;;;;;;7.90;61.28;100505.97;5020902;28;20501;-78
2021/04/02 10:22:06;;;;;;;41.97;20.88;;;;;;;7.74;62.14;100508.16;5025700;28;20045;-77
2021/04/02 10:24:32;;;;;;;38.05;19.30;;;;;;;7.61;62.53;100512.88;5008584;28;20030;-77
2021/04/02 10:26:59;;;;;;;30.38;18.30;;;;;;;7.67;62.00;100512.69;5006903;28;20029;-77
2021/04/02 10:29:25;;;;;;;26.17;17.00;;;;;;;7.76;61.30;100506.38;5046111;28;20041;-77
2021/04/02 10:31:51;;;;;;;30.40;18.80;;;;;;;8.09;60.27;100512.47;5036748;28;20467;-77
2021/04/02 10:34:16;;;;;;;27.38;17.13;;;;;;;8.27;60.22;100505.88;5012181;28;20125;-77
2021/04/02 10:36:42;;;;;;;28.23;17.08;;;;;;;8.34;60.08;100496.91;5033701;28;20043;-77
2021/04/02 10:39:08;;;;;;;19.70;12.27;;;;;;;8.29;59.79;100505.78;5026686;28;20041;-77
2021/04/02 10:41:33;;;;;;;19.95;11.90;;;;;;;8.24;60.25;100505.06;5041577;28;20044;-77
2021/04/02 10:43:58;;;;;;;18.13;10.93;;;;;;;8.21;60.49;100507.78;5049954;28;20036;-78
2021/04/02 10:46:24;;;;;;;19.13;11.63;;;;;;;8.08;60.76;100500.25;5047731;28;20859;-77
2021/04/02 10:48:49;;;;;;;18.35;9.85;;;;;;;8.07;60.76;100513.41;5047271;28;20045;-76
2021/04/02 10:51:15;;;;;;;19.60;9.20;;;;;;;8.05;60.75;100505.59;5046665;28;20072;-76
2021/04/02 10:53:40;;;;;;;14.77;8.95;;;;;;;8.11;60.70;100501.94;5046156;28;20071;-76
2021/04/02 10:56:06;;;;;;;17.50;8.93;;;;;;;8.17;59.51;100509.63;5046845;28;20052;-77
2021/04/02 10:58:32;;;;;;;17.95;8.85;;;;;;;8.11;59.96;100505.41;5049205;28;20090;-76
2021/04/02 11:00:58;;;;;;;17.92;10.98;;;;;;;8.06;59.76;100503.81;5055047;28;20041;-78
2021/04/02 11:03:24;;;;;;;12.63;7.72;;;;;;;8.11;60.16;100500.16;5040576;28;20048;-78
2021/04/02 11:05:49;;;;;;;14.65;8.93;;;;;;;8.17;59.50;100501.75;5028177;28;20038;-78
2021/04/02 11:08:15;;;;;;;15.98;8.35;;;;;;;8.18;59.23;100506.13;5008927;28;20087;-78
2021/04/02 11:10:41;;;;;;;12.18;8.38;;;;;;;8.12;59.96;100499.28;5039308;28;20516;-77
2021/04/02 11:13:06;;;;;;;13.50;8.20;;;;;;;8.19;59.47;100499.94;5047091;28;20067;-76
2021/04/02 11:15:32;;;;;;;17.58;8.73;;;;;;;8.03;59.71;100486.38;5052247;28;20037;-80
2021/04/02 11:17:57;;;;;;;18.10;10.13;;;;;;;7.98;59.51;100497.94;5063746;28;20033;-75
2021/04/02 11:20:28;;;;;;;18.77;9.63;;;;;;;8.01;59.74;100508.34;5052202;28;20112;-77